Latest Weather Observations for Townsville

IDQ60801

Issued at 6:35 pm EST Wednesday 1 October 2014 (issued every 30 minutes, with the page automatically refreshed every 10 minutes)

About weather observations | Map of weather stations | Latest weather observations for QLD | Other Formats
Station Details ID: 032040 Name: TOWNSVILLE AERO Lat: -19.25 Lon: 146.77 Height: 4.34 m
Data from the previous 72 hours. | See also: Recent months at Townsville
Date/Time
EST
Temp
°C
App
Temp
°C
Dew
Point
Rel
Hum
%
Delta-T
°C
Wind Press
QNH
hPa
Press
MSL
hPa
Rain
since 9 am
mm
Dir
 
Spd
km/h
Gust
km/h
Spd
kts
Gust
kts
01/06:00pm 23.6 22.2 16.6 65 4.3 ENE 19 26 10 14 1015.4 1015.3 0.0
01/05:30pm 24.4 22.5 16.8 62 4.7 ENE 22 28 12 15 1015.3 - 0.0
01/05:00pm 24.7 22.8 16.6 60 5.0 NE 22 30 12 16 1015.1 - 0.0
01/04:30pm 25.1 22.4 16.5 59 5.3 ENE 26 32 14 17 1015.0 - 0.0
01/04:00pm 25.8 23.1 16.6 56 5.7 ENE 26 33 14 18 1014.9 - 0.0
01/03:30pm 25.8 22.6 16.2 55 5.9 ENE 28 35 15 19 1014.9 - 0.0
01/03:00pm 26.5 22.6 15.5 50 6.7 ENE 30 35 16 19 1015.0 1014.9 0.0
01/02:30pm 26.3 22.8 15.6 51 6.5 ENE 28 35 15 19 1015.3 - 0.0
01/02:00pm 26.6 22.7 15.6 50 6.7 ENE 30 35 16 19 1015.6 - 0.0
01/01:30pm 26.8 22.5 15.5 50 6.9 ENE 32 37 17 20 1016.0 - 0.0
01/01:00pm 27.0 23.1 13.4 43 8.0 NE 26 32 14 17 1016.4 - 0.0
01/12:30pm 27.2 23.7 13.5 42 8.1 NE 24 32 13 17 1016.7 - 0.0
01/12:00pm 26.9 23.9 12.6 41 8.3 ENE 20 30 11 16 1017.3 1017.2 0.0
01/11:30am 26.9 23.7 13.1 42 8.1 NE 22 32 12 17 1017.8 - 0.0
01/11:00am 27.2 24.3 12.4 40 8.6 ENE 19 26 10 14 1018.3 - 0.0
01/10:30am 25.6 23.7 11.7 42 7.9 ENE 13 22 7 12 1018.7 - 0.0
01/10:00am 25.8 24.1 12.5 43 7.7 E 13 19 7 10 1019.0 - 0.0
01/09:30am 25.8 23.4 11.3 40 8.2 E 15 22 8 12 1019.0 - 0.0
01/09:00am 25.2 23.4 12.1 44 7.5 E 13 19 7 10 1019.0 1018.9 0.0
01/08:30am 24.3 22.2 12.4 47 6.8 ESE 15 19 8 10 1019.0 - 0.0
01/08:00am 23.5 22.6 12.5 50 6.3 SE 9 13 5 7 1018.9 - 0.0
01/07:30am 22.4 22.3 13.4 56 5.2 S 6 9 3 5 1018.6 - 0.0
01/07:00am 20.3 20.6 14.5 69 3.4 S 6 9 3 5 1018.2 - 0.0
01/06:30am 18.0 19.1 14.5 80 2.0 SW 2 9 1 5 1017.9 - 0.0
01/05:30am 18.9 17.4 13.2 69 3.2 SE 13 15 7 8 1017.5 - 0.0
01/05:00am 19.4 17.9 13.2 67 3.5 SSE 13 15 7 8 1017.3 - 0.0
01/04:30am 19.4 17.9 13.2 67 3.5 SE 13 17 7 9 1017.2 - 0.0
01/04:00am 19.8 18.0 13.3 66 3.7 SE 15 17 8 9 1017.0 - 0.0
01/03:30am 19.6 18.0 13.9 69 3.3 SE 15 17 8 9 1016.9 - 0.0
01/03:00am 19.5 18.4 14.3 72 3.0 SSE 13 15 7 8 1016.9 1016.8 0.0
01/02:30am 20.0 19.4 14.7 71 3.1 SE 11 13 6 7 1017.1 - 0.0
01/02:00am 20.5 19.9 14.5 68 3.5 SSE 11 13 6 7 1017.3 - 0.0
01/01:30am 21.2 20.5 14.3 64 4.0 SSE 11 13 6 7 1017.5 - 0.0
01/01:00am 21.0 20.4 14.5 66 3.8 SSE 11 15 6 8 1017.8 - 0.0
01/12:30am 21.2 20.4 14.0 63 4.2 E 11 13 6 7 1018.0 - 0.0
01/12:00am 22.1 20.1 12.8 55 5.3 E 15 22 8 12 1018.3 1018.2 0.0
 
Date/Time
EST
Temp
°C
App
Temp
°C
Dew
Point
Rel
Hum
%
Delta-T
°C
Wind Press
QNH
hPa
Press
MSL
hPa
Rain
since 9 am
mm
Dir
 
Spd
km/h
Gust
km/h
Spd
kts
Gust
kts
30/11:30pm 22.4 20.2 13.2 56 5.3 E 17 22 9 12 1018.4 - 0.0
30/11:00pm 22.4 20.6 13.2 56 5.3 ENE 15 20 8 11 1018.6 - 0.0
30/10:30pm 22.6 20.6 12.8 54 5.6 ENE 15 20 8 11 1018.7 - 0.0
30/10:00pm 22.5 20.8 13.5 56 5.2 ENE 15 19 8 10 1018.8 - 0.0
30/09:30pm 22.3 20.6 13.5 57 5.1 E 15 19 8 10 1018.7 - 0.0
30/09:00pm 22.5 21.3 14.1 59 4.9 E 13 17 7 9 1018.7 1018.7 0.0
30/08:30pm 22.7 21.3 14.6 60 4.8 ENE 15 19 8 10 1018.4 - 0.0
30/08:00pm 22.8 21.1 14.7 60 4.8 ENE 17 20 9 11 1018.1 - 0.0
30/07:30pm 23.2 21.8 14.6 58 5.1 ENE 15 22 8 12 1017.9 - 0.0
30/07:00pm 23.2 21.1 14.6 58 5.1 ENE 19 26 10 14 1017.6 - 0.0
30/06:30pm 23.3 21.6 15.8 62 4.5 ENE 19 26 10 14 1017.2 - 0.0
30/06:00pm 23.4 21.7 16.2 64 4.4 ENE 20 28 11 15 1016.8 1016.8 0.0
30/05:30pm 23.8 21.1 15.5 59 5.0 ENE 24 32 13 17 1016.5 - 0.0
30/05:00pm 25.2 22.1 15.6 55 5.8 ENE 26 35 14 19 1016.2 - 0.0
30/04:30pm 25.6 22.3 16.1 55 5.8 ENE 28 35 15 19 1015.8 - 0.0
30/04:00pm 25.2 21.7 15.6 55 5.8 ENE 28 33 15 18 1015.9 - 0.0
30/03:30pm 26.0 22.5 15.6 52 6.3 ENE 28 37 15 20 1016.0 - 0.0
30/03:00pm 26.0 22.1 15.6 52 6.3 ENE 30 35 16 19 1016.0 1016.0 0.0
30/02:30pm 25.8 22.6 16.4 56 5.8 ENE 28 35 15 19 1016.2 - 0.0
30/02:00pm 25.3 21.7 16.3 57 5.5 ENE 30 35 16 19 1016.5 - 0.0
30/01:30pm 27.0 23.6 15.9 50 6.8 NE 28 35 15 19 1016.7 - 0.0
30/01:00pm 26.4 22.9 15.4 50 6.7 NE 28 33 15 18 1017.2 - 0.0
30/12:30pm 26.7 24.2 14.1 46 7.5 NNE 20 35 11 19 1017.7 - 0.0
30/12:00pm 26.4 24.3 13.7 45 7.5 NE 17 30 9 16 1018.3 1018.3 0.0
30/11:30am 25.3 22.8 13.5 48 6.9 NNE 19 26 10 14 1018.9 - 0.0
30/11:00am 24.9 23.0 13.0 47 6.9 NNE 15 17 8 9 1019.5 - 0.0
30/10:30am 25.4 22.5 12.4 44 7.5 ENE 19 26 10 14 1019.8 - 0.0
30/10:00am 25.6 22.4 11.3 40 8.1 ENE 19 26 10 14 1020.2 - 0.0
30/09:30am 25.6 23.8 12.0 42 7.8 E 13 22 7 12 1020.3 - 0.0
30/09:00am 25.0 22.3 11.6 43 7.6 SE 17 26 9 14 1020.4 1020.4 0.0
30/08:30am 24.1 22.3 12.2 47 6.8 ESE 13 22 7 12 1020.2 - 0.0
30/08:00am 23.5 21.3 12.0 48 6.5 SSE 15 22 8 12 1020.0 - 0.0
30/07:30am 22.6 20.8 12.0 51 6.0 S 13 19 7 10 1019.8 - 0.0
30/07:00am 21.6 20.7 12.6 56 5.1 S 9 13 5 7 1019.6 - 0.0
30/06:30am 19.3 18.3 13.5 69 3.3 S 11 11 6 6 1019.1 - 0.0
30/06:00am 18.9 17.8 13.1 69 3.3 S 11 15 6 8 1018.8 1018.8 0.0
30/05:30am 19.3 18.1 12.9 66 3.6 S 11 15 6 8 1018.6 - 0.0
30/05:00am 19.4 18.2 12.8 65 3.7 SSE 11 13 6 7 1018.1 - 0.0
30/04:30am 20.0 18.4 12.7 63 4.1 SE 13 15 7 8 1017.8 - 0.0
30/04:00am 20.0 18.1 13.1 64 3.9 SE 15 19 8 10 1017.6 - 0.0
30/03:30am 20.5 18.4 13.7 65 3.9 SE 17 20 9 11 1017.5 - 0.0
30/03:00am 20.5 19.0 14.1 66 3.7 SE 15 19 8 10 1017.5 1017.5 0.0
30/02:30am 20.7 19.3 14.5 67 3.6 SE 15 19 8 10 1017.5 - 0.0
30/02:00am 20.9 19.7 15.0 69 3.5 SE 15 17 8 9 1017.6 - 0.0
30/01:30am 21.2 19.6 15.1 68 3.6 SE 17 19 9 10 1017.8 - 0.0
30/01:00am 21.5 20.5 15.6 69 3.5 SE 15 20 8 11 1017.9 - 0.0
30/12:30am 22.1 20.7 15.6 66 3.9 SE 17 22 9 12 1018.0 - 0.0
30/12:00am 22.3 21.3 15.6 66 4.0 SE 15 19 8 10 1018.4 1018.4 0.0
 
Date/Time
EST
Temp
°C
App
Temp
°C
Dew
Point
Rel
Hum
%
Delta-T
°C
Wind Press
QNH
hPa
Press
MSL
hPa
Rain
since 9 am
mm
Dir
 
Spd
km/h
Gust
km/h
Spd
kts
Gust
kts
29/11:30pm 22.7 20.6 14.8 61 4.7 E 19 26 10 14 1018.4 - 0.0
29/11:00pm 22.8 20.9 15.1 62 4.6 E 19 26 10 14 1018.5 - 0.0
29/10:30pm 22.8 20.4 15.3 62 4.5 E 22 32 12 17 1018.5 - 0.0
29/10:00pm 23.1 21.2 15.8 63 4.4 E 20 26 11 14 1018.4 - 0.0
29/09:30pm 23.3 20.6 15.7 62 4.6 ENE 24 32 13 17 1018.3 - 0.0
29/09:00pm 23.4 21.6 15.6 61 4.7 E 19 28 10 15 1018.4 1018.4 0.0
29/08:30pm 23.3 22.0 15.7 62 4.6 E 17 26 9 14 1018.2 - 0.0
29/08:00pm 23.3 20.4 16.0 63 4.4 E 26 32 14 17 1017.9 - 0.0
29/07:30pm 23.6 21.3 15.8 61 4.7 ENE 22 28 12 15 1017.5 - 0.0
29/07:00pm 23.6 21.5 15.1 59 5.1 ENE 20 30 11 16 1017.2 - 0.0
29/06:30pm 23.5 21.6 15.1 59 5.0 ENE 19 26 10 14 1016.9 - 0.0
29/06:00pm 23.7 22.1 15.9 61 4.7 ENE 19 26 10 14 1016.6 1016.6 0.0
29/05:30pm 24.4 22.4 15.6 58 5.3 ENE 20 26 11 14 1016.5 - 0.0
29/05:00pm 25.2 22.0 15.2 54 6.0 ENE 26 33 14 18 1016.1 - 0.0
29/04:30pm 25.7 21.8 14.5 50 6.7 ENE 28 33 15 18 1015.8 - 0.0
29/04:00pm 26.2 22.5 15.1 50 6.7 NE 28 35 15 19 1015.7 - 0.0
29/03:30pm 26.5 23.2 16.1 52 6.4 ENE 28 33 15 18 1015.8 - 0.0
29/03:00pm 26.0 22.1 15.6 52 6.3 NE 30 35 16 19 1016.0 1016.0 0.0
29/02:30pm 26.6 22.2 15.2 49 6.9 NE 32 37 17 20 1016.1 - 0.0
29/02:00pm 26.7 22.8 15.5 50 6.8 ENE 30 39 16 21 1016.3 - 0.0
29/01:30pm 27.1 22.8 14.4 45 7.6 ENE 30 35 16 19 1016.6 - 0.0
29/01:00pm 27.5 24.3 15.4 47 7.4 ENE 26 33 14 18 1016.9 - 0.0
29/12:30pm 26.9 23.3 15.2 48 7.1 NE 28 35 15 19 1017.4 - 0.0
29/12:00pm 26.4 23.5 15.0 49 6.9 ENE 24 30 13 16 1018.0 1018.0 0.0
29/11:30am 26.3 23.7 15.0 49 6.8 ENE 22 30 12 16 1018.4 - 0.0
29/11:00am 25.3 22.3 14.8 52 6.3 ENE 24 30 13 16 1018.8 - 0.0
29/10:30am 26.6 24.0 13.8 45 7.6 E 20 32 11 17 1019.1 - 0.0
29/10:00am 26.9 24.8 14.6 46 7.4 ESE 19 37 10 20 1019.3 - 0.0
29/09:30am 25.3 22.2 14.6 51 6.4 ESE 24 33 13 18 1019.4 - 0.0
29/09:00am 25.6 23.0 14.9 51 6.4 E 22 30 12 16 1019.2 1019.2 0.0
29/08:30am 25.1 23.9 16.1 57 5.5 ESE 17 22 9 12 1019.2 - 0.0
29/08:00am 23.8 22.7 16.4 63 4.5 SE 17 24 9 13 1019.1 - 0.0
29/07:30am 23.3 22.7 16.6 66 4.1 SE 15 17 8 9 1018.8 - 0.0
29/07:00am 22.3 22.0 16.5 69 3.5 SSE 13 15 7 8 1018.4 - 0.0
29/06:30am 20.5 20.7 16.7 79 2.3 SSE 11 15 6 8 1018.0 - 0.0
29/06:00am 20.2 19.5 16.4 79 2.3 SSE 15 17 8 9 1017.7 1017.7 0.0
29/05:30am 20.2 20.0 16.6 80 2.2 SE 13 17 7 9 1017.3 - 0.0
29/05:00am 20.3 19.9 16.3 78 2.4 SE 13 15 7 8 1016.7 - 0.0
29/04:30am 20.3 20.3 16.3 78 2.4 SE 11 13 6 7 1016.5 - 0.0
29/04:00am 20.7 20.4 16.4 76 2.6 SE 13 15 7 8 1016.3 - 0.0
29/03:30am 21.2 21.3 16.6 75 2.8 SE 11 13 6 7 1016.4 - 0.0
29/03:00am 21.4 21.5 16.6 74 2.9 SSE 11 13 6 7 1016.4 1016.4 0.0
29/02:30am 22.1 21.8 15.4 65 4.0 E 11 13 6 7 1016.5 - 0.0
29/02:00am 22.4 22.0 16.1 67 3.8 E 13 17 7 9 1016.8 - 0.0
29/01:30am 22.2 21.8 16.3 69 3.6 E 13 17 7 9 1017.1 - 0.0
29/01:00am 22.5 22.1 16.2 67 3.8 E 13 17 7 9 1017.3 - 0.0
29/12:30am 22.8 22.3 15.8 64 4.2 ENE 13 17 7 9 1017.6 - 0.0
29/12:00am 22.8 22.1 16.4 67 3.9 ENE 15 20 8 11 1017.8 1017.8 0.0
 
Date/Time
EST
Temp
°C
App
Temp
°C
Dew
Point
Rel
Hum
%
Delta-T
°C
Wind Press
QNH
hPa
Press
MSL
hPa
Rain
since 9 am
mm
Dir
 
Spd
km/h
Gust
km/h
Spd
kts
Gust
kts
28/11:30pm 22.9 22.2 16.3 66 4.0 ENE 15 22 8 12 1017.9 - 0.0
28/11:00pm 23.0 22.5 17.0 69 3.7 ENE 15 19 8 10 1017.9 - 0.0
28/10:30pm 23.1 22.2 16.9 68 3.8 ENE 17 22 9 12 1017.9 - 0.0
28/10:00pm 23.0 21.5 16.4 66 4.0 ENE 19 24 10 13 1018.1 - 0.0
28/09:30pm 23.1 22.0 16.4 66 4.1 ENE 17 22 9 12 1018.0 - 0.0
28/09:00pm 23.2 22.2 16.5 66 4.1 ENE 17 20 9 11 1018.1 1018.1 0.0
28/08:30pm 23.0 22.1 15.9 64 4.3 NE 15 19 8 10 1017.9 - 0.0
28/08:00pm 22.3 22.4 16.4 69 3.6 NNE 11 13 6 7 1017.6 - 0.0
28/07:30pm 23.1 23.2 16.4 66 4.1 N 11 13 6 7 1017.5 - 0.0
28/07:00pm 22.8 22.4 16.2 66 4.0 ENE 13 17 7 9 1017.3 - 0.0

Other Formats:

Comma delimited format used in spreadsheet applications
http://www.bom.gov.au/fwo/IDQ60801/IDQ60801.94294.axf

JavaScript Object Notation format (JSON) in row-major order
http://www.bom.gov.au/fwo/IDQ60801/IDQ60801.94294.json